Have a Safe July 4th! 

Flight Track Log - Related Links

Times and Time Zones

All times are in EDT time to prevent confusion due to time zone crossing. See the PJC79 flight status page for this flight to view local times or setup timezone preferences in your user account.

Time Position Orientation Groundspeed Altitude Reporting Facility
EDT Latitude Longitude Course Direction KTS MPH feet Rate Location/Type
Sun 08:45:54 PM 35.5233 -82.5358 18° North 200 230 7,300  Level Atlanta Center
Sun 08:46:54 PM 35.5494 -82.4586 67° East 209 241 10,300 2,550 Climbing Atlanta Center
Sun 08:47:54 PM 35.5694 -82.3792 73° East 239 275 12,400 2,200 Climbing Atlanta Center
Sun 08:48:54 PM 35.5889 -82.2792 77° East 283 326 14,700 2,200 Climbing Atlanta Center
Sun 08:49:54 PM 35.6103 -82.1767 76° East 303 349 16,800 2,000 Climbing Atlanta Center
Sun 08:50:00 PM 35.5787 -81.9352 73° East  Level FlightAware Approximate
Sun 08:50:54 PM 35.6336 -82.0661 75° East 320 368 18,700  Level Atlanta Center
Sun 08:51:54 PM 35.6589 -81.9506 75° East 337 388 20,300 1,600 Climbing Atlanta Center
Sun 08:52:54 PM 35.6817 -81.8350 76° East 347 399 21,900 1,650 Climbing Atlanta Center
Sun 08:53:54 PM 35.7086 -81.7039 76° East 353 406 23,600 1,650 Climbing Atlanta Center
Sun 08:54:54 PM 35.7333 -81.5803 76° East 358 412 25,200 1,600 Climbing Atlanta Center
Sun 08:55:54 PM 35.7600 -81.4542 75° East 363 418 26,800 1,450 Climbing Atlanta Center
Sun 08:56:54 PM 35.7883 -81.3228 75° East 380 437 28,100 1,200 Climbing Atlanta Center
Sun 08:57:54 PM 35.8144 -81.1861 77° East 403 464 29,200 1,000 Climbing Atlanta Center
Sun 08:58:54 PM 35.8386 -81.0597 77° East 408 470 30,100 1,050 Climbing Atlanta Center
Sun 08:59:54 PM 35.8642 -80.9178 77° East 420 483 31,300 1,400 Climbing Atlanta Center
Sun 09:00:54 PM 35.8919 -80.7783 76° East 420 483 32,900 1,800 Climbing Atlanta Center
Sun 09:01:54 PM 35.9194 -80.6414 76° East 408 470 34,900 1,750 Climbing Atlanta Center
Sun 09:02:54 PM 35.9428 -80.5069 78° East 403 464 36,400 1,137 Climbing Atlanta Center
Sun 09:04:27 PM 35.9839 -80.3025 76° East 381 438 37,800 968 Climbing Washington Center
Sun 09:05:29 PM 36.0083 -80.1625 78° East 405 466 38,900 1,059 Climbing Washington Center
Sun 09:06:26 PM 36.0361 -80.0331 75° East 405 466 39,900 1,026 Climbing Washington Center
Sun 09:07:26 PM 36.0886 -79.9103 62° Northeast 400 460 40,900 541 Climbing Washington Center
Sun 09:08:28 PM 36.1575 -79.7906 55° Northeast 400 460 41,000 49 Climbing Washington Center
Sun 09:09:28 PM 36.2244 -79.6628 57° Northeast 430 495 41,000 51 Level Washington Center
Sun 09:10:26 PM 36.3022 -79.5275 54° Northeast 437 503 41,100  Climbing Washington Center
Sun 09:11:26 PM 36.3589 -79.3886 63° Northeast 437 503 41,000 -50 Descending Washington Center
Sun 09:12:27 PM 36.3983 -79.2564 70° East 445 512 41,000  Level Washington Center
Sun 09:13:27 PM 36.4572 -79.1042 64° Northeast 450 518 41,000  Level Washington Center
Sun 09:14:28 PM 36.5072 -78.9642 66° East 445 512 41,000  Level Washington Center
Sun 09:15:26 PM 36.5569 -78.8217 66° East 445 512 41,000  Level Washington Center
Sun 09:16:27 PM 36.6067 -78.6761 67° East 445 512 41,000  Level Washington Center
Sun 09:17:28 PM 36.6625 -78.5361 64° Northeast 445 512 41,000  Level Washington Center
Sun 09:18:26 PM 36.7336 -78.4325 49° Northeast 445 512 41,000  Level Washington Center
Sun 09:19:27 PM 36.8178 -78.3214 47° Northeast 438 504 41,000  Level Washington Center
Sun 09:20:28 PM 36.9197 -78.2417 32° Northeast 424 488 41,000  Level Washington Center
Sun 09:21:28 PM 37.0364 -78.1522 31° Northeast 435 501 41,000  Level Washington Center
Sun 09:22:26 PM 37.1272 -78.0900 29° Northeast 429 494 41,000  Level Washington Center
Sun 09:23:27 PM 37.2289 -78.0125 31° Northeast 424 488 41,000  Level Washington Center
Sun 09:24:29 PM 37.3392 -77.9272 32° Northeast 424 488 41,000  Level Washington Center
Sun 09:25:26 PM 37.4467 -77.8678 24° Northeast 424 488 41,000  Level Washington Center
Sun 09:26:26 PM 37.5481 -77.8000 28° Northeast 413 475 41,000  Level Washington Center
Sun 09:27:27 PM 37.6456 -77.7189 33° Northeast 413 475 41,000  Level Washington Center
Sun 09:28:26 PM 37.7408 -77.6322 36° Northeast 418 481 41,000  Level Washington Center
Sun 09:29:26 PM 37.8381 -77.5586 31° Northeast 413 475 41,000  Level Washington Center
Sun 09:30:27 PM 37.9447 -77.5431 North 380 437 41,000  Level Washington Center
Sun 09:31:28 PM 38.0250 -77.6031 330° Northwest 329 379 41,000  Level Washington Center
Sun 09:32:26 PM 38.0483 -77.6961 288° West 277 319 41,000  Level Washington Center
Sun 09:33:27 PM 38.0111 -77.7978 245° Southwest 237 273 41,000  Level Washington Center
Sun 09:34:28 PM 37.9314 -77.8244 195° South 226 260 41,000  Level Washington Center
Sun 09:35:28 PM 37.8533 -77.7617 148° Southeast 245 282 41,000  Level Washington Center
Sun 09:36:26 PM 37.8264 -77.6319 105° East 284 327 41,000 -1,059 Level Washington Center
Sun 09:37:27 PM 37.8664 -77.4908 70° East 322 371 38,900 -2,262 Descending Washington Center
Sun 09:38:28 PM 37.9658 -77.3881 39° Northeast 379 436 36,400 -2,380 Descending Washington Center
Sun 09:39:28 PM 38.0628 -77.3167 30° Northeast 399 459 34,100 -2,420 Descending Washington Center
Sun 09:40:27 PM 38.1747 -77.2267 32° Northeast 439 505 31,600 -2,288 Descending Washington Center
Sun 09:41:26 PM 38.2947 -77.1208 35° Northeast 460 529 29,600 -1,600 Descending Washington Center
Sun 09:42:27 PM 38.3856 -77.0406 35° Northeast 460 529 28,400 -1,426 Descending Washington Center
Sun 09:43:28 PM 38.5014 -76.9367 35° Northeast 455 524 26,700 -1,537 Descending Washington Center
Sun 09:44:28 PM 38.6025 -76.8428 36° Northeast 455 524 25,300 -1,373 Descending Washington Center
Sun 09:45:26 PM 38.7036 -76.7436 37° Northeast 455 524 24,000 -655 Descending Washington Center
Sun 09:46:27 PM 38.7961 -76.6383 42° Northeast 455 524 24,000  Level Washington Center
Sun 09:47:26 PM 38.8847 -76.5383 41° Northeast 437 503 24,000  Level Washington Center
Sun 09:48:26 PM 38.9772 -76.4300 42° Northeast 432 497 24,000  Level Washington Center
Sun 09:49:27 PM 39.0694 -76.3214 42° Northeast 438 504 24,000  Level Washington Center
Sun 09:50:29 PM 39.1619 -76.2153 42° Northeast 443 510 24,000 -50 Level Washington Center
Sun 09:51:27 PM 39.2456 -76.1222 41° Northeast 443 510 23,900 -1,109 Descending Washington Center
Sun 09:53:33 PM 39.4667 -75.9167 36° Northeast 423 487 20,600 -1,742 Descending Philadelphia TRACON
Sun 09:54:33 PM 39.5500 -75.8333 38° Northeast 404 465 18,500 -2,050 Descending Philadelphia TRACON
Sun 09:55:33 PM 39.6333 -75.7500 38° Northeast 392 451 16,500 -2,050 Descending Philadelphia TRACON
Sun 09:56:33 PM 39.7333 -75.6667 33° Northeast 373 429 14,400 -1,750 Descending Philadelphia TRACON
Sun 09:57:33 PM 39.8167 -75.5833 38° Northeast 348 400 13,000 -700 Descending Philadelphia TRACON
Sun 09:58:33 PM 39.8833 -75.5167 37° Northeast 353 406 13,000 -53 Level Philadelphia TRACON
Sun 09:59:27 PM 39.9667 -75.4500 32° Northeast 364 419 12,900 -53 Descending Philadelphia TRACON
Sun 10:00:27 PM 40.0500 -75.3667 37° Northeast 356 410 12,900 50 Level Philadelphia TRACON
Sun 10:01:27 PM 40.1167 -75.3000 37° Northeast 359 413 13,000 -550 Climbing Philadelphia TRACON
Sun 10:02:27 PM 40.2000 -75.2167 37° Northeast 352 405 11,800 -1,367 Descending Philadelphia TRACON
Sun 10:04:05 PM 40.3167 -75.1000 37° Northeast 315 362 9,400 -1,557 Descending New York TRACON
Sun 10:05:05 PM 40.3833 -75.0333 37° Northeast 295 339 7,700 -1,150 Descending New York TRACON
Sun 10:06:05 PM 40.4333 -74.9500 52° Northeast 284 327 7,100 -900 Descending New York TRACON
Sun 10:07:05 PM 40.4833 -74.8833 45° Northeast 283 326 5,900 -1,421 Descending New York TRACON
Sun 10:07:59 PM 40.5333 -74.8167 45° Northeast 273 314 4,400 -900 Descending New York TRACON
Sun 10:09:05 PM 40.5833 -74.7333 52° Northeast 262 302 4,100 -150 Descending New York TRACON
Sun 10:09:59 PM 40.6500 -74.6833 30° Northeast 277 319 4,100  Level New York TRACON
Sun 10:11:05 PM 40.7167 -74.6333 30° Northeast 276 318 4,100 -300 Level New York TRACON
Sun 10:11:59 PM 40.7833 -74.5833 30° Northeast 274 315 3,500 -500 Descending New York TRACON
Sun 10:13:05 PM 40.8500 -74.5167 37° Northeast 274 315 3,100 -238 Descending New York TRACON
Sun 10:14:05 PM 40.9000 -74.4667 37° Northeast 253 291 3,000  Descending New York TRACON
Sun 10:15:06 PM 40.9500 -74.4167 37° Northeast 221 254 3,100 -333 Climbing New York TRACON
Sun 10:16:11 PM 40.9667 -74.3500 72° East 212 244 2,300 -528 Descending New York TRACON
Sun 10:17:11 PM 40.9500 -74.2833 108° East 184 212 2,000 -158 Descending New York TRACON
Sun 10:18:05 PM 40.9167 -74.3000 201° Southwest 133 153 2,000  Level New York TRACON
Sun 10:19:11 PM 40.9000 -74.3167 217° Southwest 124 143 2,000 -100 Level New York TRACON
Sun 10:20:05 PM 40.8667 -74.3500 217° Southwest 121 139 1,800 -417 Descending New York TRACON
Sun 10:21:06 PM 40.8500 -74.3667 217° Southwest 109 125 1,200 -590 Descending New York TRACON
Sun 10:23:00 PM 40.7993 -74.4149 192° South  Level Estimated
Sun 10:30:00 PM 40.7993 -74.4149 192° South  Level Estimated
Sun 10:31:00 PM 40.7993 -74.4149 192° South  Level Estimated

Login

Don't have an account? Register now (free) for customized features, flight alerts, and more!